sensor_id;sensor_type;location;lat;lon;timestamp;P1;durP1;ratioP1;P2;durP2;ratioP2
4638;SDS011;2332;38.646;-9.154;2023-11-21T00:00:21;16.50;;;5.50;;
4638;SDS011;2332;38.646;-9.154;2023-11-21T00:02:46;11.50;;;5.50;;
4638;SDS011;2332;38.646;-9.154;2023-11-21T00:05:13;19.93;;;5.00;;
4638;SDS011;2332;38.646;-9.154;2023-11-21T00:07:41;15.50;;;4.60;;
4638;SDS011;2332;38.646;-9.154;2023-11-21T00:10:07;20.07;;;3.50;;
4638;SDS011;2332;38.646;-9.154;2023-11-21T00:12:33;16.37;;;3.60;;
4638;SDS011;2332;38.646;-9.154;2023-11-21T00:14:59;19.00;;;4.70;;
4638;SDS011;2332;38.646;-9.154;2023-11-21T00:17:24;12.83;;;3.90;;
4638;SDS011;2332;38.646;-9.154;2023-11-21T00:19:50;13.30;;;3.30;;
4638;SDS011;2332;38.646;-9.154;2023-11-21T00:22:17;16.00;;;3.57;;
4638;SDS011;2332;38.646;-9.154;2023-11-21T00:24:42;15.70;;;3.10;;
4638;SDS011;2332;38.646;-9.154;2023-11-21T00:27:08;12.90;;;3.90;;
4638;SDS011;2332;38.646;-9.154;2023-11-21T00:29:33;18.50;;;3.57;;
4638;SDS011;2332;38.646;-9.154;2023-11-21T00:31:58;15.33;;;2.87;;
4638;SDS011;2332;38.646;-9.154;2023-11-21T00:34:24;17.73;;;3.50;;
4638;SDS011;2332;38.646;-9.154;2023-11-21T00:36:49;19.90;;;4.43;;
4638;SDS011;2332;38.646;-9.154;2023-11-21T00:39:15;20.37;;;3.80;;
4638;SDS011;2332;38.646;-9.154;2023-11-21T00:41:40;17.47;;;3.63;;
4638;SDS011;2332;38.646;-9.154;2023-11-21T00:44:07;21.30;;;3.53;;
4638;SDS011;2332;38.646;-9.154;2023-11-21T00:46:32;17.50;;;4.90;;
4638;SDS011;2332;38.646;-9.154;2023-11-21T00:48:57;12.93;;;3.67;;
4638;SDS011;2332;38.646;-9.154;2023-11-21T00:51:23;16.83;;;4.20;;
4638;SDS011;2332;38.646;-9.154;2023-11-21T00:53:49;18.27;;;3.40;;
4638;SDS011;2332;38.646;-9.154;2023-11-21T00:56:15;16.77;;;3.60;;
4638;SDS011;2332;38.646;-9.154;2023-11-21T00:58:40;25.83;;;4.53;;
4638;SDS011;2332;38.646;-9.154;2023-11-21T01:01:11;22.20;;;4.47;;
4638;SDS011;2332;38.646;-9.154;2023-11-21T01:03:36;14.70;;;3.23;;
4638;SDS011;2332;38.646;-9.154;2023-11-21T01:06:02;21.40;;;3.80;;
4638;SDS011;2332;38.646;-9.154;2023-11-21T01:08:27;12.43;;;4.37;;
4638;SDS011;2332;38.646;-9.154;2023-11-21T01:10:53;16.77;;;3.50;;
4638;SDS011;2332;38.646;-9.154;2023-11-21T01:13:19;14.30;;;4.43;;
4638;SDS011;2332;38.646;-9.154;2023-11-21T01:15:45;20.33;;;3.70;;
4638;SDS011;2332;38.646;-9.154;2023-11-21T01:18:11;24.17;;;4.13;;
4638;SDS011;2332;38.646;-9.154;2023-11-21T01:20:36;19.67;;;5.00;;
4638;SDS011;2332;38.646;-9.154;2023-11-21T01:23:01;22.23;;;4.27;;
4638;SDS011;2332;38.646;-9.154;2023-11-21T01:25:27;19.93;;;4.30;;
4638;SDS011;2332;38.646;-9.154;2023-11-21T01:27:52;17.73;;;3.50;;
4638;SDS011;2332;38.646;-9.154;2023-11-21T01:30:18;16.53;;;4.30;;
4638;SDS011;2332;38.646;-9.154;2023-11-21T01:32:43;14.53;;;3.70;;
4638;SDS011;2332;38.646;-9.154;2023-11-21T01:35:09;20.07;;;5.17;;
4638;SDS011;2332;38.646;-9.154;2023-11-21T01:37:35;22.13;;;4.83;;
4638;SDS011;2332;38.646;-9.154;2023-11-21T01:40:01;17.90;;;4.17;;
4638;SDS011;2332;38.646;-9.154;2023-11-21T01:42:27;24.53;;;4.40;;
4638;SDS011;2332;38.646;-9.154;2023-11-21T01:44:54;31.80;;;4.80;;
4638;SDS011;2332;38.646;-9.154;2023-11-21T01:47:20;19.90;;;4.23;;
4638;SDS011;2332;38.646;-9.154;2023-11-21T01:49:46;12.17;;;3.80;;
4638;SDS011;2332;38.646;-9.154;2023-11-21T01:52:12;23.33;;;4.20;;
4638;SDS011;2332;38.646;-9.154;2023-11-21T01:54:38;22.17;;;5.13;;
4638;SDS011;2332;38.646;-9.154;2023-11-21T01:57:04;20.33;;;4.23;;
4638;SDS011;2332;38.646;-9.154;2023-11-21T01:59:35;16.07;;;3.83;;
4638;SDS011;2332;38.646;-9.154;2023-11-21T02:02:02;21.20;;;4.70;;
4638;SDS011;2332;38.646;-9.154;2023-11-21T02:04:27;19.23;;;3.93;;
4638;SDS011;2332;38.646;-9.154;2023-11-21T02:06:53;15.40;;;3.70;;
4638;SDS011;2332;38.646;-9.154;2023-11-21T02:09:23;19.33;;;3.63;;
4638;SDS011;2332;38.646;-9.154;2023-11-21T02:11:49;13.23;;;4.03;;
4638;SDS011;2332;38.646;-9.154;2023-11-21T02:14:14;20.30;;;3.93;;
4638;SDS011;2332;38.646;-9.154;2023-11-21T02:16:40;20.20;;;4.40;;
4638;SDS011;2332;38.646;-9.154;2023-11-21T02:19:06;19.47;;;4.40;;
4638;SDS011;2332;38.646;-9.154;2023-11-21T02:21:34;20.67;;;3.40;;
4638;SDS011;2332;38.646;-9.154;2023-11-21T02:24:01;11.10;;;3.40;;
4638;SDS011;2332;38.646;-9.154;2023-11-21T02:26:26;22.80;;;3.87;;
4638;SDS011;2332;38.646;-9.154;2023-11-21T02:28:52;16.27;;;3.93;;
4638;SDS011;2332;38.646;-9.154;2023-11-21T02:31:18;15.77;;;4.20;;
4638;SDS011;2332;38.646;-9.154;2023-11-21T02:33:44;21.37;;;4.60;;
4638;SDS011;2332;38.646;-9.154;2023-11-21T02:36:09;25.60;;;5.00;;
4638;SDS011;2332;38.646;-9.154;2023-11-21T02:38:34;13.70;;;5.00;;
4638;SDS011;2332;38.646;-9.154;2023-11-21T02:41:00;22.83;;;4.43;;
4638;SDS011;2332;38.646;-9.154;2023-11-21T02:43:25;16.90;;;4.33;;
4638;SDS011;2332;38.646;-9.154;2023-11-21T02:45:51;18.83;;;4.20;;
4638;SDS011;2332;38.646;-9.154;2023-11-21T02:48:16;17.60;;;3.50;;
4638;SDS011;2332;38.646;-9.154;2023-11-21T02:50:41;14.70;;;3.73;;
4638;SDS011;2332;38.646;-9.154;2023-11-21T02:53:08;20.80;;;4.30;;
4638;SDS011;2332;38.646;-9.154;2023-11-21T02:55:35;17.37;;;3.40;;
4638;SDS011;2332;38.646;-9.154;2023-11-21T02:58:01;24.67;;;4.83;;
4638;SDS011;2332;38.646;-9.154;2023-11-21T03:00:26;18.13;;;3.87;;
4638;SDS011;2332;38.646;-9.154;2023-11-21T03:02:52;23.23;;;3.23;;
4638;SDS011;2332;38.646;-9.154;2023-11-21T03:05:18;13.73;;;3.70;;
4638;SDS011;2332;38.646;-9.154;2023-11-21T03:07:43;22.40;;;4.60;;
4638;SDS011;2332;38.646;-9.154;2023-11-21T03:10:09;23.70;;;4.23;;
4638;SDS011;2332;38.646;-9.154;2023-11-21T03:12:36;15.50;;;4.27;;
4638;SDS011;2332;38.646;-9.154;2023-11-21T03:15:01;13.37;;;3.57;;
4638;SDS011;2332;38.646;-9.154;2023-11-21T03:17:27;13.20;;;3.90;;
4638;SDS011;2332;38.646;-9.154;2023-11-21T03:19:54;28.17;;;4.50;;
4638;SDS011;2332;38.646;-9.154;2023-11-21T03:22:19;19.43;;;4.60;;
4638;SDS011;2332;38.646;-9.154;2023-11-21T03:24:45;11.70;;;3.10;;
4638;SDS011;2332;38.646;-9.154;2023-11-21T03:27:10;12.10;;;3.80;;
4638;SDS011;2332;38.646;-9.154;2023-11-21T03:29:35;14.23;;;4.20;;
4638;SDS011;2332;38.646;-9.154;2023-11-21T03:32:01;18.53;;;4.77;;
4638;SDS011;2332;38.646;-9.154;2023-11-21T03:34:27;12.60;;;3.57;;
4638;SDS011;2332;38.646;-9.154;2023-11-21T03:36:52;10.07;;;3.60;;
4638;SDS011;2332;38.646;-9.154;2023-11-21T03:39:21;19.63;;;4.20;;
4638;SDS011;2332;38.646;-9.154;2023-11-21T03:41:47;12.57;;;3.13;;
4638;SDS011;2332;38.646;-9.154;2023-11-21T03:44:13;15.87;;;3.67;;
4638;SDS011;2332;38.646;-9.154;2023-11-21T03:46:38;26.17;;;3.47;;
4638;SDS011;2332;38.646;-9.154;2023-11-21T03:49:04;19.10;;;4.77;;
4638;SDS011;2332;38.646;-9.154;2023-11-21T03:51:29;14.90;;;3.93;;
4638;SDS011;2332;38.646;-9.154;2023-11-21T03:53:55;30.63;;;6.53;;
4638;SDS011;2332;38.646;-9.154;2023-11-21T03:56:20;13.07;;;3.23;;
4638;SDS011;2332;38.646;-9.154;2023-11-21T03:58:47;21.07;;;4.57;;
4638;SDS011;2332;38.646;-9.154;2023-11-21T04:01:22;19.00;;;4.20;;
4638;SDS011;2332;38.646;-9.154;2023-11-21T04:03:48;19.73;;;4.27;;
4638;SDS011;2332;38.646;-9.154;2023-11-21T04:06:14;13.63;;;3.87;;
4638;SDS011;2332;38.646;-9.154;2023-11-21T04:08:39;17.67;;;3.83;;
4638;SDS011;2332;38.646;-9.154;2023-11-21T04:11:04;18.70;;;4.07;;
4638;SDS011;2332;38.646;-9.154;2023-11-21T04:13:30;15.10;;;4.10;;
4638;SDS011;2332;38.646;-9.154;2023-11-21T04:15:55;29.43;;;4.77;;
4638;SDS011;2332;38.646;-9.154;2023-11-21T04:18:21;20.90;;;3.90;;
4638;SDS011;2332;38.646;-9.154;2023-11-21T04:20:48;20.53;;;3.50;;
4638;SDS011;2332;38.646;-9.154;2023-11-21T04:23:13;15.03;;;3.43;;
4638;SDS011;2332;38.646;-9.154;2023-11-21T04:25:39;12.70;;;3.60;;
4638;SDS011;2332;38.646;-9.154;2023-11-21T04:28:04;20.40;;;3.70;;
4638;SDS011;2332;38.646;-9.154;2023-11-21T04:30:29;13.83;;;3.77;;
4638;SDS011;2332;38.646;-9.154;2023-11-21T04:32:55;16.30;;;4.40;;
4638;SDS011;2332;38.646;-9.154;2023-11-21T04:35:20;14.73;;;3.30;;
4638;SDS011;2332;38.646;-9.154;2023-11-21T04:37:45;18.00;;;3.93;;
4638;SDS011;2332;38.646;-9.154;2023-11-21T04:40:11;20.03;;;4.00;;
4638;SDS011;2332;38.646;-9.154;2023-11-21T04:42:37;16.30;;;4.10;;
4638;SDS011;2332;38.646;-9.154;2023-11-21T04:45:05;15.50;;;3.73;;
4638;SDS011;2332;38.646;-9.154;2023-11-21T04:47:35;15.90;;;3.33;;
4638;SDS011;2332;38.646;-9.154;2023-11-21T04:50:00;19.87;;;4.37;;
4638;SDS011;2332;38.646;-9.154;2023-11-21T04:52:25;10.90;;;3.70;;
4638;SDS011;2332;38.646;-9.154;2023-11-21T04:54:51;15.83;;;3.70;;
4638;SDS011;2332;38.646;-9.154;2023-11-21T04:57:16;20.87;;;4.73;;
4638;SDS011;2332;38.646;-9.154;2023-11-21T04:59:44;17.27;;;3.37;;
4638;SDS011;2332;38.646;-9.154;2023-11-21T05:02:09;13.20;;;3.43;;
4638;SDS011;2332;38.646;-9.154;2023-11-21T05:04:34;13.70;;;3.43;;
4638;SDS011;2332;38.646;-9.154;2023-11-21T05:07:00;24.93;;;5.03;;
4638;SDS011;2332;38.646;-9.154;2023-11-21T05:09:26;16.30;;;3.43;;
4638;SDS011;2332;38.646;-9.154;2023-11-21T05:11:53;15.50;;;3.10;;
4638;SDS011;2332;38.646;-9.154;2023-11-21T05:14:19;23.37;;;3.90;;
4638;SDS011;2332;38.646;-9.154;2023-11-21T05:16:44;13.37;;;3.57;;
4638;SDS011;2332;38.646;-9.154;2023-11-21T05:19:09;16.90;;;3.27;;
4638;SDS011;2332;38.646;-9.154;2023-11-21T05:21:35;24.73;;;4.17;;
4638;SDS011;2332;38.646;-9.154;2023-11-21T05:24:01;18.27;;;4.30;;
4638;SDS011;2332;38.646;-9.154;2023-11-21T05:26:26;19.63;;;3.80;;
4638;SDS011;2332;38.646;-9.154;2023-11-21T05:28:52;12.77;;;2.87;;
4638;SDS011;2332;38.646;-9.154;2023-11-21T05:31:18;13.13;;;3.80;;
4638;SDS011;2332;38.646;-9.154;2023-11-21T05:33:44;21.03;;;3.70;;
4638;SDS011;2332;38.646;-9.154;2023-11-21T05:36:10;12.03;;;3.60;;
4638;SDS011;2332;38.646;-9.154;2023-11-21T05:38:35;15.20;;;3.27;;
4638;SDS011;2332;38.646;-9.154;2023-11-21T05:41:01;17.63;;;3.30;;
4638;SDS011;2332;38.646;-9.154;2023-11-21T05:43:27;12.40;;;2.97;;
4638;SDS011;2332;38.646;-9.154;2023-11-21T05:45:54;21.10;;;3.13;;
4638;SDS011;2332;38.646;-9.154;2023-11-21T05:48:20;14.63;;;3.03;;
4638;SDS011;2332;38.646;-9.154;2023-11-21T05:50:46;16.07;;;2.83;;
4638;SDS011;2332;38.646;-9.154;2023-11-21T05:53:11;20.90;;;4.03;;
4638;SDS011;2332;38.646;-9.154;2023-11-21T05:55:36;12.30;;;3.10;;
4638;SDS011;2332;38.646;-9.154;2023-11-21T05:58:02;24.77;;;3.77;;
4638;SDS011;2332;38.646;-9.154;2023-11-21T06:00:27;16.90;;;3.13;;
4638;SDS011;2332;38.646;-9.154;2023-11-21T06:02:53;12.07;;;3.80;;
4638;SDS011;2332;38.646;-9.154;2023-11-21T06:05:19;14.60;;;3.30;;
4638;SDS011;2332;38.646;-9.154;2023-11-21T06:07:45;13.13;;;3.17;;
4638;SDS011;2332;38.646;-9.154;2023-11-21T06:10:10;11.93;;;3.30;;
4638;SDS011;2332;38.646;-9.154;2023-11-21T06:12:38;14.90;;;3.77;;
4638;SDS011;2332;38.646;-9.154;2023-11-21T06:15:05;20.63;;;3.20;;
4638;SDS011;2332;38.646;-9.154;2023-11-21T06:17:33;11.33;;;2.73;;
4638;SDS011;2332;38.646;-9.154;2023-11-21T06:20:01;16.60;;;3.40;;
4638;SDS011;2332;38.646;-9.154;2023-11-21T06:22:29;18.47;;;3.20;;
4638;SDS011;2332;38.646;-9.154;2023-11-21T06:24:55;13.53;;;3.17;;
4638;SDS011;2332;38.646;-9.154;2023-11-21T06:27:21;18.33;;;3.23;;
4638;SDS011;2332;38.646;-9.154;2023-11-21T06:29:46;11.80;;;3.13;;
4638;SDS011;2332;38.646;-9.154;2023-11-21T06:32:12;11.80;;;3.07;;
4638;SDS011;2332;38.646;-9.154;2023-11-21T06:34:37;16.20;;;2.30;;
4638;SDS011;2332;38.646;-9.154;2023-11-21T06:37:03;12.70;;;3.17;;
4638;SDS011;2332;38.646;-9.154;2023-11-21T06:39:28;7.63;;;2.73;;
4638;SDS011;2332;38.646;-9.154;2023-11-21T06:41:54;13.67;;;3.43;;
4638;SDS011;2332;38.646;-9.154;2023-11-21T06:44:19;15.13;;;2.83;;
4638;SDS011;2332;38.646;-9.154;2023-11-21T06:46:45;13.10;;;2.83;;
4638;SDS011;2332;38.646;-9.154;2023-11-21T06:49:10;15.80;;;3.60;;
4638;SDS011;2332;38.646;-9.154;2023-11-21T06:51:36;13.90;;;2.93;;
4638;SDS011;2332;38.646;-9.154;2023-11-21T06:54:01;9.50;;;3.20;;
4638;SDS011;2332;38.646;-9.154;2023-11-21T06:56:27;15.17;;;3.03;;
4638;SDS011;2332;38.646;-9.154;2023-11-21T06:58:52;13.70;;;2.63;;
4638;SDS011;2332;38.646;-9.154;2023-11-21T07:01:19;14.07;;;2.77;;
4638;SDS011;2332;38.646;-9.154;2023-11-21T07:03:44;9.07;;;3.00;;
4638;SDS011;2332;38.646;-9.154;2023-11-21T07:06:11;19.47;;;3.10;;
4638;SDS011;2332;38.646;-9.154;2023-11-21T07:08:36;18.67;;;3.43;;
4638;SDS011;2332;38.646;-9.154;2023-11-21T07:11:02;12.10;;;2.87;;
4638;SDS011;2332;38.646;-9.154;2023-11-21T07:13:28;18.73;;;3.80;;
4638;SDS011;2332;38.646;-9.154;2023-11-21T07:15:53;16.87;;;2.77;;
4638;SDS011;2332;38.646;-9.154;2023-11-21T07:18:19;17.20;;;3.80;;
4638;SDS011;2332;38.646;-9.154;2023-11-21T07:20:44;16.70;;;3.33;;
4638;SDS011;2332;38.646;-9.154;2023-11-21T07:23:10;15.57;;;3.10;;
4638;SDS011;2332;38.646;-9.154;2023-11-21T07:25:35;12.50;;;4.20;;
4638;SDS011;2332;38.646;-9.154;2023-11-21T07:28:01;27.60;;;3.70;;
4638;SDS011;2332;38.646;-9.154;2023-11-21T07:30:26;22.50;;;4.20;;
4638;SDS011;2332;38.646;-9.154;2023-11-21T07:32:52;13.50;;;3.60;;
4638;SDS011;2332;38.646;-9.154;2023-11-21T07:35:18;11.13;;;2.90;;
4638;SDS011;2332;38.646;-9.154;2023-11-21T07:37:43;10.27;;;2.97;;
4638;SDS011;2332;38.646;-9.154;2023-11-21T07:40:08;14.20;;;2.70;;
4638;SDS011;2332;38.646;-9.154;2023-11-21T07:42:36;15.63;;;4.00;;
4638;SDS011;2332;38.646;-9.154;2023-11-21T07:45:02;13.80;;;4.17;;
4638;SDS011;2332;38.646;-9.154;2023-11-21T07:47:27;16.47;;;3.93;;
4638;SDS011;2332;38.646;-9.154;2023-11-21T07:49:53;10.47;;;3.20;;
4638;SDS011;2332;38.646;-9.154;2023-11-21T07:52:21;22.20;;;3.20;;
4638;SDS011;2332;38.646;-9.154;2023-11-21T07:54:46;14.83;;;3.37;;
4638;SDS011;2332;38.646;-9.154;2023-11-21T07:57:11;13.47;;;2.90;;
4638;SDS011;2332;38.646;-9.154;2023-11-21T07:59:38;16.77;;;4.00;;
4638;SDS011;2332;38.646;-9.154;2023-11-21T08:02:05;13.30;;;3.43;;
4638;SDS011;2332;38.646;-9.154;2023-11-21T08:04:31;20.27;;;3.40;;
4638;SDS011;2332;38.646;-9.154;2023-11-21T08:06:57;22.90;;;4.00;;
4638;SDS011;2332;38.646;-9.154;2023-11-21T08:09:22;13.30;;;3.73;;
4638;SDS011;2332;38.646;-9.154;2023-11-21T08:11:49;16.20;;;3.20;;
4638;SDS011;2332;38.646;-9.154;2023-11-21T08:14:14;17.53;;;4.77;;
4638;SDS011;2332;38.646;-9.154;2023-11-21T08:16:40;20.93;;;3.17;;
4638;SDS011;2332;38.646;-9.154;2023-11-21T08:19:05;15.70;;;3.47;;
4638;SDS011;2332;38.646;-9.154;2023-11-21T08:21:31;17.17;;;3.33;;
4638;SDS011;2332;38.646;-9.154;2023-11-21T08:23:56;14.90;;;3.47;;
4638;SDS011;2332;38.646;-9.154;2023-11-21T08:26:22;16.37;;;3.03;;
4638;SDS011;2332;38.646;-9.154;2023-11-21T08:28:48;16.07;;;3.90;;
4638;SDS011;2332;38.646;-9.154;2023-11-21T08:31:14;10.27;;;3.00;;
4638;SDS011;2332;38.646;-9.154;2023-11-21T08:33:39;19.30;;;3.00;;
4638;SDS011;2332;38.646;-9.154;2023-11-21T08:36:08;10.77;;;3.00;;
4638;SDS011;2332;38.646;-9.154;2023-11-21T08:38:34;17.73;;;4.47;;
4638;SDS011;2332;38.646;-9.154;2023-11-21T08:41:03;12.13;;;3.60;;
4638;SDS011;2332;38.646;-9.154;2023-11-21T08:43:28;9.90;;;2.80;;
4638;SDS011;2332;38.646;-9.154;2023-11-21T08:45:53;15.13;;;2.80;;
4638;SDS011;2332;38.646;-9.154;2023-11-21T08:48:19;13.60;;;2.67;;
4638;SDS011;2332;38.646;-9.154;2023-11-21T08:50:44;12.60;;;3.50;;
4638;SDS011;2332;38.646;-9.154;2023-11-21T08:53:10;14.80;;;3.30;;
4638;SDS011;2332;38.646;-9.154;2023-11-21T08:55:36;12.40;;;2.90;;
4638;SDS011;2332;38.646;-9.154;2023-11-21T08:58:02;11.33;;;2.30;;
4638;SDS011;2332;38.646;-9.154;2023-11-21T09:00:30;15.87;;;2.47;;
4638;SDS011;2332;38.646;-9.154;2023-11-21T09:02:55;4.83;;;1.80;;
4638;SDS011;2332;38.646;-9.154;2023-11-21T09:05:20;5.07;;;1.77;;
4638;SDS011;2332;38.646;-9.154;2023-11-21T09:07:46;2.70;;;1.83;;
4638;SDS011;2332;38.646;-9.154;2023-11-21T09:10:13;10.83;;;2.30;;
4638;SDS011;2332;38.646;-9.154;2023-11-21T09:12:39;6.20;;;2.00;;
4638;SDS011;2332;38.646;-9.154;2023-11-21T09:15:05;4.93;;;2.10;;
4638;SDS011;2332;38.646;-9.154;2023-11-21T09:17:34;3.90;;;1.60;;
4638;SDS011;2332;38.646;-9.154;2023-11-21T09:19:59;6.60;;;2.03;;
4638;SDS011;2332;38.646;-9.154;2023-11-21T09:22:25;4.77;;;1.50;;
4638;SDS011;2332;38.646;-9.154;2023-11-21T09:24:50;6.07;;;1.90;;
4638;SDS011;2332;38.646;-9.154;2023-11-21T09:27:16;5.10;;;1.70;;
4638;SDS011;2332;38.646;-9.154;2023-11-21T09:29:42;7.30;;;2.33;;
4638;SDS011;2332;38.646;-9.154;2023-11-21T09:32:09;6.33;;;2.03;;
4638;SDS011;2332;38.646;-9.154;2023-11-21T09:34:39;9.10;;;1.60;;
4638;SDS011;2332;38.646;-9.154;2023-11-21T09:37:04;3.60;;;1.70;;
4638;SDS011;2332;38.646;-9.154;2023-11-21T09:39:31;14.30;;;1.70;;
4638;SDS011;2332;38.646;-9.154;2023-11-21T09:41:58;9.40;;;2.10;;
4638;SDS011;2332;38.646;-9.154;2023-11-21T09:44:32;5.97;;;1.80;;
4638;SDS011;2332;38.646;-9.154;2023-11-21T09:47:00;5.83;;;1.30;;
4638;SDS011;2332;38.646;-9.154;2023-11-21T09:49:27;5.80;;;1.60;;
4638;SDS011;2332;38.646;-9.154;2023-11-21T09:51:57;4.23;;;1.70;;
4638;SDS011;2332;38.646;-9.154;2023-11-21T09:54:23;10.57;;;2.00;;
4638;SDS011;2332;38.646;-9.154;2023-11-21T09:56:49;6.77;;;1.77;;
4638;SDS011;2332;38.646;-9.154;2023-11-21T09:59:15;5.43;;;1.80;;
4638;SDS011;2332;38.646;-9.154;2023-11-21T10:01:41;5.40;;;2.10;;
4638;SDS011;2332;38.646;-9.154;2023-11-21T10:04:07;2.47;;;1.53;;
4638;SDS011;2332;38.646;-9.154;2023-11-21T10:06:38;5.70;;;1.90;;
4638;SDS011;2332;38.646;-9.154;2023-11-21T10:09:04;5.53;;;1.80;;
4638;SDS011;2332;38.646;-9.154;2023-11-21T10:11:36;6.33;;;2.23;;
4638;SDS011;2332;38.646;-9.154;2023-11-21T10:14:03;2.27;;;1.87;;
4638;SDS011;2332;38.646;-9.154;2023-11-21T10:16:29;4.53;;;2.00;;
4638;SDS011;2332;38.646;-9.154;2023-11-21T10:18:55;7.67;;;2.10;;
4638;SDS011;2332;38.646;-9.154;2023-11-21T10:21:22;9.70;;;2.57;;
4638;SDS011;2332;38.646;-9.154;2023-11-21T10:23:48;4.30;;;2.10;;
4638;SDS011;2332;38.646;-9.154;2023-11-21T10:26:15;5.10;;;2.10;;
4638;SDS011;2332;38.646;-9.154;2023-11-21T10:28:54;5.03;;;1.80;;
4638;SDS011;2332;38.646;-9.154;2023-11-21T10:31:20;7.70;;;2.57;;
4638;SDS011;2332;38.646;-9.154;2023-11-21T10:33:45;4.07;;;2.00;;
4638;SDS011;2332;38.646;-9.154;2023-11-21T10:36:11;4.53;;;2.30;;
4638;SDS011;2332;38.646;-9.154;2023-11-21T10:38:41;5.53;;;2.50;;
4638;SDS011;2332;38.646;-9.154;2023-11-21T10:41:09;2.47;;;2.30;;
4638;SDS011;2332;38.646;-9.154;2023-11-21T10:43:35;5.07;;;2.20;;
4638;SDS011;2332;38.646;-9.154;2023-11-21T10:46:00;2.90;;;1.97;;
4638;SDS011;2332;38.646;-9.154;2023-11-21T10:48:26;13.07;;;3.67;;
4638;SDS011;2332;38.646;-9.154;2023-11-21T10:50:52;3.90;;;2.37;;
4638;SDS011;2332;38.646;-9.154;2023-11-21T10:53:17;9.10;;;2.67;;
4638;SDS011;2332;38.646;-9.154;2023-11-21T10:55:44;7.13;;;2.10;;
4638;SDS011;2332;38.646;-9.154;2023-11-21T10:58:09;3.20;;;2.63;;
4638;SDS011;2332;38.646;-9.154;2023-11-21T11:00:36;2.47;;;2.17;;
4638;SDS011;2332;38.646;-9.154;2023-11-21T11:03:02;3.30;;;3.10;;
4638;SDS011;2332;38.646;-9.154;2023-11-21T11:05:28;4.53;;;2.90;;
4638;SDS011;2332;38.646;-9.154;2023-11-21T11:08:08;4.20;;;2.87;;
4638;SDS011;2332;38.646;-9.154;2023-11-21T11:10:33;5.47;;;2.93;;
4638;SDS011;2332;38.646;-9.154;2023-11-21T11:13:00;8.23;;;3.07;;
4638;SDS011;2332;38.646;-9.154;2023-11-21T11:15:26;2.50;;;2.30;;
4638;SDS011;2332;38.646;-9.154;2023-11-21T11:17:52;4.63;;;3.10;;
4638;SDS011;2332;38.646;-9.154;2023-11-21T11:20:22;7.87;;;3.07;;
4638;SDS011;2332;38.646;-9.154;2023-11-21T11:31:04;5.50;;;2.43;;
4638;SDS011;2332;38.646;-9.154;2023-11-21T11:38:59;6.80;;;2.13;;
4638;SDS011;2332;38.646;-9.154;2023-11-21T11:41:27;2.73;;;2.23;;
4638;SDS011;2332;38.646;-9.154;2023-11-21T11:43:53;3.53;;;1.97;;
4638;SDS011;2332;38.646;-9.154;2023-11-21T11:46:18;4.47;;;1.70;;
4638;SDS011;2332;38.646;-9.154;2023-11-21T11:48:47;3.27;;;1.97;;
4638;SDS011;2332;38.646;-9.154;2023-11-21T11:51:13;2.67;;;2.07;;
4638;SDS011;2332;38.646;-9.154;2023-11-21T11:53:49;3.80;;;1.60;;
4638;SDS011;2332;38.646;-9.154;2023-11-21T11:56:25;2.27;;;1.53;;
4638;SDS011;2332;38.646;-9.154;2023-11-21T11:58:51;3.00;;;1.47;;
4638;SDS011;2332;38.646;-9.154;2023-11-21T12:01:20;4.70;;;1.60;;
4638;SDS011;2332;38.646;-9.154;2023-11-21T12:06:48;3.33;;;1.50;;
4638;SDS011;2332;38.646;-9.154;2023-11-21T12:09:22;2.73;;;1.27;;
4638;SDS011;2332;38.646;-9.154;2023-11-21T12:11:49;3.03;;;1.27;;
4638;SDS011;2332;38.646;-9.154;2023-11-21T12:14:14;2.40;;;1.70;;
4638;SDS011;2332;38.646;-9.154;2023-11-21T12:16:40;7.23;;;1.70;;
4638;SDS011;2332;38.646;-9.154;2023-11-21T12:19:05;3.90;;;1.70;;
4638;SDS011;2332;38.646;-9.154;2023-11-21T12:21:31;3.13;;;1.77;;
4638;SDS011;2332;38.646;-9.154;2023-11-21T12:23:57;4.03;;;1.53;;
4638;SDS011;2332;38.646;-9.154;2023-11-21T12:26:23;3.83;;;2.17;;
4638;SDS011;2332;38.646;-9.154;2023-11-21T12:28:54;4.20;;;1.77;;
4638;SDS011;2332;38.646;-9.154;2023-11-21T12:31:23;5.70;;;2.00;;
4638;SDS011;2332;38.646;-9.154;2023-11-21T12:33:48;6.33;;;1.90;;
4638;SDS011;2332;38.646;-9.154;2023-11-21T12:36:14;6.43;;;2.23;;
4638;SDS011;2332;38.646;-9.154;2023-11-21T12:38:40;3.53;;;1.80;;
4638;SDS011;2332;38.646;-9.154;2023-11-21T12:41:07;6.60;;;1.70;;
4638;SDS011;2332;38.646;-9.154;2023-11-21T12:43:32;6.03;;;2.10;;
4638;SDS011;2332;38.646;-9.154;2023-11-21T12:46:31;7.90;;;2.43;;
4638;SDS011;2332;38.646;-9.154;2023-11-21T12:48:53;5.17;;;2.03;;
4638;SDS011;2332;38.646;-9.154;2023-11-21T12:51:19;8.57;;;2.23;;
4638;SDS011;2332;38.646;-9.154;2023-11-21T12:53:44;2.40;;;1.77;;
4638;SDS011;2332;38.646;-9.154;2023-11-21T12:56:10;5.90;;;2.03;;
4638;SDS011;2332;38.646;-9.154;2023-11-21T12:58:36;3.40;;;2.10;;
4638;SDS011;2332;38.646;-9.154;2023-11-21T13:01:02;2.63;;;1.77;;
4638;SDS011;2332;38.646;-9.154;2023-11-21T13:03:30;7.03;;;2.10;;
4638;SDS011;2332;38.646;-9.154;2023-11-21T13:05:56;2.70;;;1.73;;
4638;SDS011;2332;38.646;-9.154;2023-11-21T13:08:24;4.40;;;2.00;;
4638;SDS011;2332;38.646;-9.154;2023-11-21T13:10:51;5.87;;;1.67;;
4638;SDS011;2332;38.646;-9.154;2023-11-21T13:13:16;4.00;;;2.50;;
4638;SDS011;2332;38.646;-9.154;2023-11-21T13:15:49;4.33;;;2.23;;
4638;SDS011;2332;38.646;-9.154;2023-11-21T13:18:15;4.60;;;2.07;;
4638;SDS011;2332;38.646;-9.154;2023-11-21T13:20:41;3.60;;;1.77;;
4638;SDS011;2332;38.646;-9.154;2023-11-21T13:23:08;9.30;;;2.57;;
4638;SDS011;2332;38.646;-9.154;2023-11-21T13:25:34;6.60;;;1.93;;
4638;SDS011;2332;38.646;-9.154;2023-11-21T13:27:59;4.30;;;1.60;;
4638;SDS011;2332;38.646;-9.154;2023-11-21T13:30:26;6.33;;;1.83;;
4638;SDS011;2332;38.646;-9.154;2023-11-21T13:32:52;5.97;;;2.23;;
4638;SDS011;2332;38.646;-9.154;2023-11-21T13:35:18;9.27;;;1.57;;
4638;SDS011;2332;38.646;-9.154;2023-11-21T13:37:55;5.90;;;2.00;;
4638;SDS011;2332;38.646;-9.154;2023-11-21T13:40:21;6.33;;;3.20;;
4638;SDS011;2332;38.646;-9.154;2023-11-21T13:42:50;9.83;;;2.50;;
4638;SDS011;2332;38.646;-9.154;2023-11-21T13:45:18;6.10;;;2.90;;
4638;SDS011;2332;38.646;-9.154;2023-11-21T13:47:45;5.93;;;2.47;;
4638;SDS011;2332;38.646;-9.154;2023-11-21T13:50:11;6.40;;;2.43;;
4638;SDS011;2332;38.646;-9.154;2023-11-21T13:52:42;11.37;;;3.10;;
4638;SDS011;2332;38.646;-9.154;2023-11-21T13:55:09;5.83;;;2.63;;
4638;SDS011;2332;38.646;-9.154;2023-11-21T13:57:40;3.47;;;3.00;;
4638;SDS011;2332;38.646;-9.154;2023-11-21T14:00:08;4.30;;;2.10;;
4638;SDS011;2332;38.646;-9.154;2023-11-21T14:02:51;2.67;;;1.70;;
4638;SDS011;2332;38.646;-9.154;2023-11-21T14:05:16;5.70;;;1.90;;
4638;SDS011;2332;38.646;-9.154;2023-11-21T14:07:49;3.13;;;1.73;;
4638;SDS011;2332;38.646;-9.154;2023-11-21T14:10:14;6.90;;;1.90;;
4638;SDS011;2332;38.646;-9.154;2023-11-21T14:12:41;4.00;;;2.07;;
4638;SDS011;2332;38.646;-9.154;2023-11-21T14:15:07;7.00;;;2.33;;
4638;SDS011;2332;38.646;-9.154;2023-11-21T14:17:34;8.00;;;1.80;;
4638;SDS011;2332;38.646;-9.154;2023-11-21T14:20:00;4.03;;;1.87;;
4638;SDS011;2332;38.646;-9.154;2023-11-21T14:22:30;4.33;;;1.90;;
4638;SDS011;2332;38.646;-9.154;2023-11-21T14:24:56;8.27;;;2.17;;
4638;SDS011;2332;38.646;-9.154;2023-11-21T14:27:25;6.20;;;1.87;;
4638;SDS011;2332;38.646;-9.154;2023-11-21T14:29:50;6.83;;;2.27;;
4638;SDS011;2332;38.646;-9.154;2023-11-21T14:32:15;30.83;;;13.77;;
4638;SDS011;2332;38.646;-9.154;2023-11-21T14:34:41;9.30;;;1.80;;
4638;SDS011;2332;38.646;-9.154;2023-11-21T14:37:10;11.97;;;4.77;;
4638;SDS011;2332;38.646;-9.154;2023-11-21T14:39:39;10.27;;;2.30;;
4638;SDS011;2332;38.646;-9.154;2023-11-21T14:42:09;11.57;;;2.13;;
4638;SDS011;2332;38.646;-9.154;2023-11-21T14:44:35;4.03;;;1.70;;
4638;SDS011;2332;38.646;-9.154;2023-11-21T14:47:05;9.87;;;1.80;;
4638;SDS011;2332;38.646;-9.154;2023-11-21T14:49:37;2.43;;;1.50;;
4638;SDS011;2332;38.646;-9.154;2023-11-21T14:52:17;4.37;;;1.60;;
4638;SDS011;2332;38.646;-9.154;2023-11-21T14:55:03;3.57;;;1.60;;
4638;SDS011;2332;38.646;-9.154;2023-11-21T14:57:47;7.40;;;1.80;;
4638;SDS011;2332;38.646;-9.154;2023-11-21T15:00:18;8.83;;;1.67;;
4638;SDS011;2332;38.646;-9.154;2023-11-21T15:03:01;4.30;;;1.73;;
4638;SDS011;2332;38.646;-9.154;2023-11-21T15:05:27;12.23;;;2.17;;